States of Jersey

Home Log in

METAR EGJB 220520Z 24024KT 0400 -DZ FG BKN000 BKN001 11/11 Q1008

METAR LFRD 220530Z AUTO 23014KT 9999 -DZ OVC011 13/12 Q1011 TEMPO 3000 RADZ BR BKN008 BECMG 24015G30KT